メインページ
METAR-TAF:

METAR-TAF

空港 :

ミンスク第2空港

ミンスク, ベラルーシ

緯度: 53-56N, 経度: 027-38E, 海抜: 234m

現時点の気象観測

当レポートは13分前の23:00(UTC)に作成
北/北西の風 6kt
気温 13°C
湿度 94%
気圧 1022 hPa
視程10km以上
高度5000ftの雲はほとんどない, 積乱雲.
高度10000ftの雲は散在している

METAR: UMMS 242300Z 34003MPS 9999 FEW050CB SCT100 13/12 Q1022 R31/290055 NOSIG

時間: 02:13 (23:13 UTC)

予報

当レポートは1時間31分前の21:42(UTC)に作成
予報は24日の 22時(UTC)から 25日の 18時(UTC)まで有効
北/北東の風 10kt
視程: 7000m
高度3000ftの千切れ雲あり
24日の 22時(UTC)から 24日の 24時(UTC)まで一時的に
東/北東の風 16kt、最大25ktの突風を伴う
視程: 1200m
高度500ftの雲は散在している
高度2500ftの千切れ雲あり, 積乱雲.
激しい雷雨, 雨
25日の 00時(UTC)から 25日の 06時(UTC)まで一時的に
変向風 4kt
視程: 0400m
高度300ftの千切れ雲あり
高度1500ftの千切れ雲あり, 積乱雲.
弱いにわか雨, 霧
25日の 06時(UTC)から 25日の 18時(UTC)まで一時的に
東/北東の風 14kt、最大23ktの突風を伴う
視程: 2100m
高度500ftの雲は散在している
高度2000ftの千切れ雲あり, 積乱雲.
激しい雷雨, 小雨

TAF: UMMS 242142Z 2422/2518 03005MPS 7000 BKN030 TEMPO 2422/2424 06008G13MPS 1200 TSRA SCT005 BKN025CB TEMPO 2500/2506 VRB02MPS 0400 -SHRA FG BKN003 BKN015CB TEMPO 2506/2518 06007G12MPS 2100 -TSRA SCT005 BKN020CB

4,000以上の空港の気象観測と天気予報(METAR報とTAF報)

利用可能な観測所は地図上に黄色い丸と赤い丸で示す。

丸の上にカーソルを重ねると観測所名を参照できる。

次にクリックすると気象観測と天気予報を参照できる。

マップの切り替え:黒色「×」印の緑ボタンをクリックして拡大、「-」印の緑ボタンをクリックして縮小、緑色の三角印をクリックして隣りの地図に切り替え


METAR-TAF: